Terminal Aerodrome Forecast
Issued by NWS Oklahoma City, OK

Home | Current Version | Previous Version | Text Only | Print | Product List | Glossary On
Versions: 1 2 3 4 5 6 7 8 9 10 11 12 13 14
000
FTUS44 KOUN 191744
TAFOUN
TAF
KOUN 191744Z 1918/2018 17012KT P6SM BKN015
     FM200100 16010KT 4SM -SHRA BR OVC008
      TEMPO 2002/2005 2SM TSRA SCT008 OVC015CB
     FM201000 18008KT P6SM SCT030 BKN100
      TEMPO 2010/2012 5SM -TSRA BR BKN030CB
     FM201400 19010KT P6SM OVC200=

USA.gov is the U.S. government's official web portal to all federal, state and local government web resources and services.